North Downs, United Kingdom
Current Conditions -  °F | °C
As of 9:20 AM on Friday 28 Nov 2014 (Local Time) from EGMC Reporting Station
Broken Clouds Broken Clouds  
Wind Chill: 11°   Ceiling: 900
Heat Index: 11°   Visibility: 4mi
Dew Point:   Wind: 12mph
Humidity: 88%   Direction: 100°E
Pressure: 29.62"   Gusts: NA
Location:  51.25°N, 0.68°E
Report Text: EGMC 280920Z 10010KT 7000 BKN009 11/09 Q1003
Loading
Personal Weather Stations






























Interactive Weather Map New forecast layout! Learn more

10-Day Weather Forecast

Advertisements
Track Severe Weather on mobile